Terminal Aerodrome Forecast
Issued by NWS

Home | Current Version | Previous Version | Text Only | Print | Product List | Glossary On
Versions: 1 2 3 4 5 6 7 8 9 10 11
000
FTUS42 KMLB 141120
TAFSUA
TAF
KSUA 141120Z 1412/1512 25003KT P6SM SCT250
     FM141500 28004KT P6SM FEW250
     FM142000 20005KT P6SM FEW040 SCT250
     FM150000 00000KT P6SM SCT250
     FM150900 00000KT P6SM FEW030 BKN250=

USA.gov is the U.S. government's official web portal to all federal, state and local government web resources and services.